Highland, New York
Current Conditions -  °F | °C
As of 2:53 PM on Friday 24 Oct 2014 (Local Time) from KPOU Reporting Station
Overcast Overcast  
Wind Chill: 57°   Ceiling: 3600
Heat Index: 57°   Visibility: 10mi
Dew Point: 44°   Wind: 9mph
Humidity: 62%   Direction: 10°N
Pressure: 29.78"   Gusts: NA
Location:  41.72°N, 73.96°W
Report Text: KPOU 241853Z 01008KT 10SM OVC036 14/07 A2978 RMK AO2 SLP080 T01390067
Loading
Personal Weather Stations






























Interactive Weather Map New forecast layout! Learn more

10-Day Weather Forecast

Advertisements
Track Severe Weather on mobile